createdAt,value
2023-01-03T04:01:59.371Z,100.00
2023-01-03T04:05:12.780Z,100.00
2023-01-03T04:08:22.909Z,100.00
2023-01-03T04:11:32.720Z,100.00
2023-01-03T04:14:42.339Z,100.00
2023-01-03T04:17:53.314Z,100.00
2023-01-03T04:21:03.159Z,100.00
2023-01-03T04:24:12.977Z,100.00
2023-01-03T04:27:22.650Z,100.00
2023-01-03T04:30:32.355Z,100.00
2023-01-03T04:33:43.539Z,100.00
2023-01-03T04:36:53.221Z,100.00
2023-01-03T04:40:03.227Z,100.00
2023-01-03T04:43:23.941Z,100.00
2023-01-03T04:46:36.417Z,100.00
2023-01-03T04:49:47.916Z,100.00
2023-01-03T04:52:57.612Z,100.00
2023-01-03T04:56:07.562Z,100.00
2023-01-03T04:59:17.233Z,100.00
2023-01-03T05:02:27.021Z,100.00
2023-01-03T05:05:39.084Z,100.00
2023-01-03T05:08:48.942Z,100.00
2023-01-03T05:11:58.607Z,100.00
2023-01-03T05:15:09.366Z,100.00
2023-01-03T05:18:19.359Z,100.00
2023-01-03T05:21:41.319Z,100.00
2023-01-03T05:25:02.015Z,100.00
2023-01-03T05:28:17.111Z,100.00
2023-01-03T05:31:28.829Z,100.00
2023-01-03T05:34:38.607Z,100.00
2023-01-03T05:37:49.489Z,100.00
2023-01-03T05:40:59.182Z,100.00
2023-01-03T05:44:08.899Z,100.00
2023-01-03T05:47:18.815Z,100.00
2023-01-03T05:50:28.438Z,100.00
2023-01-03T05:53:39.386Z,100.00
2023-01-03T05:56:50.501Z,100.00
2023-01-03T08:49:44.142Z,100.00
2023-01-03T08:52:54.000Z,100.00
2023-01-03T08:56:04.269Z,100.00
2023-01-03T08:59:14.122Z,100.00
2023-01-03T09:02:23.917Z,100.00
2023-01-03T09:05:35.052Z,100.00
2023-01-03T09:08:44.836Z,100.00
2023-01-03T09:11:54.490Z,100.00
2023-01-03T09:15:04.548Z,100.00
2023-01-03T09:18:14.881Z,100.00
2023-01-03T09:21:26.039Z,100.00
2023-01-03T09:24:35.875Z,100.00
2023-01-03T09:27:47.725Z,100.00
2023-01-03T09:30:57.793Z,100.00
2023-01-03T09:34:07.497Z,100.00
2023-01-03T09:37:18.463Z,100.00
2023-01-03T09:40:28.173Z,100.00
2023-01-03T09:43:41.467Z,100.00
2023-01-03T09:46:51.310Z,100.00
2023-01-03T09:53:49.264Z,100.00
2023-01-03T09:57:10.542Z,100.00
2023-01-03T10:00:37.212Z,100.00
2023-01-03T10:03:56.407Z,100.00
2023-01-03T10:07:16.003Z,100.00
2023-01-03T10:10:34.650Z,100.00
2023-01-03T10:13:57.877Z,100.00
2023-01-03T10:17:17.557Z,100.00
2023-01-03T10:20:35.232Z,100.00
2023-01-03T10:23:48.323Z,100.00
2023-01-03T10:27:08.837Z,100.00
2023-01-03T10:30:23.152Z,100.00
2023-01-03T10:33:36.006Z,97.46
2023-01-03T10:36:45.754Z,98.39
2023-01-03T10:40:03.626Z,99.34
2023-01-03T10:43:19.232Z,98.27
2023-01-03T10:46:30.121Z,96.20
2023-01-03T10:49:45.621Z,96.14
2023-01-03T10:52:59.540Z,96.93
2023-01-03T10:56:09.718Z,96.23
2023-01-03T10:59:24.861Z,92.81
2023-01-03T11:02:44.079Z,92.87
2023-01-03T11:06:09.978Z,89.32
2023-01-03T11:09:19.984Z,89.50
2023-01-03T11:12:34.960Z,89.08
2023-01-03T11:15:45.988Z,90.75
2023-01-03T11:19:02.049Z,88.66
2023-01-03T11:22:18.485Z,90.21
2023-01-03T11:25:41.145Z,90.60
2023-01-03T11:29:04.241Z,90.97
2023-01-03T11:32:31.008Z,91.15
2023-01-03T11:35:54.616Z,90.38
2023-01-03T11:39:26.508Z,89.95
2023-01-03T11:42:48.207Z,88.84
2023-01-03T11:46:16.237Z,89.08
2023-01-03T11:49:41.866Z,89.32
2023-01-03T11:53:00.959Z,90.50
2023-01-03T11:56:27.229Z,92.14
2023-01-03T11:59:49.918Z,91.88
2023-01-03T12:12:08.823Z,90.28
2023-01-03T12:24:03.235Z,89.11
2023-01-03T12:27:33.950Z,89.14
2023-01-03T12:30:48.679Z,86.92
2023-01-03T12:34:06.639Z,86.10
2023-01-03T12:37:21.790Z,86.61
2023-01-03T12:40:47.634Z,85.99
2023-01-03T12:44:04.876Z,86.42
2023-01-03T12:47:26.639Z,86.69
2023-01-03T12:50:41.688Z,88.96
2023-01-03T12:54:04.867Z,90.13
2023-01-03T12:57:34.679Z,91.12
2023-01-03T13:00:57.031Z,90.59
2023-01-03T13:04:20.856Z,89.65
2023-01-03T13:07:35.293Z,88.98
2023-01-03T13:10:50.433Z,88.86
2023-01-03T13:14:07.301Z,90.66
2023-01-03T13:17:20.991Z,89.97
2023-01-03T13:20:36.853Z,88.83
2023-01-03T13:23:59.534Z,88.98
2023-01-03T13:27:33.348Z,89.41
2023-01-03T13:30:43.350Z,92.55
2023-01-03T13:33:57.571Z,93.27
2023-01-03T13:37:18.872Z,92.14
2023-01-03T13:41:08.023Z,92.06
2023-01-03T13:44:10.220Z,91.57
2023-01-03T13:47:26.577Z,92.39
2023-01-03T13:50:38.698Z,92.28
2023-01-03T13:53:57.493Z,92.25
2023-01-03T13:57:30.886Z,92.14
2023-01-03T14:00:41.741Z,92.70
2023-01-03T14:04:11.320Z,95.04
2023-01-03T14:07:51.009Z,96.20
2023-01-03T14:11:17.725Z,95.71
2023-01-03T14:14:32.337Z,96.57
2023-01-03T14:17:48.343Z,95.74
2023-01-03T14:21:00.122Z,95.93
2023-01-03T14:24:20.567Z,95.30
2023-01-03T14:27:37.887Z,94.22
2023-01-03T14:31:00.404Z,95.33
2023-01-03T14:34:23.210Z,95.12
2023-01-03T14:37:35.107Z,95.75
2023-01-03T14:40:48.763Z,95.43
2023-01-03T14:44:01.156Z,94.16
2023-01-03T14:47:17.730Z,93.18
2023-01-03T14:50:30.299Z,92.52
2023-01-03T14:53:41.758Z,92.51
2023-01-03T14:56:53.139Z,92.22
2023-01-03T15:00:05.584Z,92.01
2023-01-03T15:03:16.020Z,92.04
2023-01-03T15:06:29.296Z,91.35
2023-01-03T15:09:39.683Z,92.13
2023-01-03T15:12:58.943Z,92.56
2023-01-03T15:16:24.505Z,94.15
2023-01-03T15:19:35.282Z,94.70
2023-01-03T15:22:46.211Z,95.40
2023-01-03T15:25:56.780Z,95.71
2023-01-03T15:29:14.192Z,96.12
2023-01-03T15:32:24.413Z,97.25
2023-01-03T15:35:38.872Z,97.06
2023-01-03T15:38:50.167Z,98.61
2023-01-03T15:42:43.071Z,97.94
2023-01-03T15:45:44.306Z,98.37
2023-01-03T15:48:57.954Z,98.73
2023-01-03T15:52:08.225Z,99.19
2023-01-03T15:55:18.892Z,100.00
2023-01-03T15:58:30.593Z,100.00
2023-01-03T16:01:42.248Z,100.00
2023-01-03T16:04:53.985Z,100.00
2023-01-03T16:08:26.095Z,100.00
2023-01-03T16:11:36.197Z,100.00
2023-01-03T16:14:48.026Z,100.00
2023-01-03T16:17:59.617Z,100.00
2023-01-03T16:21:09.805Z,100.00
2023-01-03T16:24:20.271Z,100.00
2023-01-03T16:27:30.471Z,100.00
2023-01-03T16:30:40.571Z,100.00
2023-01-03T16:33:52.753Z,100.00
2023-01-03T16:37:03.055Z,100.00
2023-01-03T16:40:16.925Z,100.00
2023-01-03T16:43:28.276Z,100.00
2023-01-03T16:46:40.205Z,100.00
2023-01-03T16:49:55.649Z,100.00
2023-01-03T16:53:08.424Z,100.00
2023-01-03T16:56:18.548Z,100.00
2023-01-03T16:59:28.673Z,100.00
2023-01-03T17:02:39.247Z,100.00
2023-01-03T17:05:51.642Z,100.00
2023-01-03T17:09:04.748Z,100.00
2023-01-03T17:12:18.525Z,100.00
2023-01-03T17:15:30.981Z,100.00
2023-01-03T17:18:42.962Z,100.00
2023-01-03T17:21:55.439Z,100.00
2023-01-03T17:25:05.679Z,100.00
2023-01-03T17:28:15.757Z,100.00
2023-01-03T17:31:26.993Z,100.00
2023-01-03T17:34:38.141Z,100.00
2023-01-03T17:38:24.035Z,100.00
2023-01-03T17:41:22.212Z,100.00
2023-01-03T17:44:32.452Z,100.00
2023-01-03T17:47:55.596Z,100.00
2023-01-03T17:51:05.734Z,100.00
2023-01-03T17:54:17.113Z,100.00
2023-01-03T17:57:27.158Z,100.00
2023-01-03T18:00:37.221Z,100.00
2023-01-03T18:03:48.747Z,100.00
2023-01-03T18:07:00.377Z,100.00
2023-01-03T18:10:17.007Z,100.00
2023-01-03T18:13:29.364Z,100.00
2023-01-03T18:16:39.549Z,100.00
2023-01-03T18:19:49.672Z,100.00
2023-01-03T18:23:01.779Z,100.00
2023-01-03T18:26:16.275Z,100.00
2023-01-03T18:29:26.446Z,100.00
2023-01-03T18:32:36.623Z,100.00
2023-01-03T18:35:47.346Z,100.00
2023-01-03T18:39:03.651Z,100.00
2023-01-03T18:42:26.678Z,100.00
2023-01-03T18:45:38.102Z,100.00
2023-01-03T18:48:48.684Z,100.00
2023-01-03T18:51:59.765Z,100.00
2023-01-03T18:55:18.243Z,100.00
2023-01-03T18:58:35.345Z,100.00
2023-01-03T19:01:48.043Z,100.00
2023-01-03T19:05:01.629Z,100.00
2023-01-03T19:08:23.112Z,100.00
2023-01-03T19:11:37.073Z,100.00
2023-01-03T19:14:49.134Z,100.00
2023-01-03T19:18:01.849Z,100.00
2023-01-03T19:21:13.508Z,100.00
2023-01-03T19:24:30.736Z,100.00
2023-01-03T19:27:48.735Z,100.00
2023-01-03T19:31:01.102Z,100.00
2023-01-03T19:34:17.416Z,100.00
2023-01-03T19:37:28.179Z,100.00
2023-01-03T19:40:42.286Z,100.00
2023-01-03T19:43:53.304Z,100.00
2023-01-03T19:47:05.427Z,100.00
2023-01-03T19:50:20.417Z,100.00
2023-01-03T19:53:32.819Z,100.00
2023-01-03T19:56:45.330Z,100.00
2023-01-03T20:00:02.110Z,100.00
2023-01-03T20:03:29.527Z,100.00
2023-01-03T20:06:41.579Z,100.00
2023-01-03T20:09:54.004Z,100.00
2023-01-03T20:13:06.372Z,100.00
2023-01-03T20:16:18.050Z,100.00
2023-01-03T20:19:31.264Z,100.00
2023-01-03T20:26:22.575Z,100.00
2023-01-03T20:29:34.317Z,100.00
2023-01-03T20:32:46.016Z,100.00
2023-01-03T20:36:14.368Z,100.00
2023-01-03T20:39:32.547Z,100.00
2023-01-03T20:42:44.617Z,100.00
2023-01-03T20:45:57.756Z,100.00
2023-01-03T20:49:17.653Z,100.00
2023-01-03T20:52:33.955Z,100.00
2023-01-03T20:55:47.009Z,100.00
2023-01-03T20:58:59.923Z,100.00
